createdAt,value
2019-02-19T00:02:25.757Z,100.00
2019-02-19T00:04:58.140Z,100.00
2019-02-19T00:07:30.551Z,100.00
2019-02-19T00:10:02.914Z,100.00
2019-02-19T00:12:35.903Z,100.00
2019-02-19T00:15:08.872Z,100.00
2019-02-19T00:17:41.304Z,100.00
2019-02-19T00:20:13.828Z,100.00
2019-02-19T00:22:46.333Z,100.00
2019-02-19T00:25:19.092Z,100.00
2019-02-19T00:27:51.470Z,100.00
2019-02-19T00:30:23.958Z,100.00
2019-02-19T00:32:56.814Z,100.00
2019-02-19T00:35:29.224Z,100.00
2019-02-19T00:38:01.733Z,100.00
2019-02-19T00:40:34.194Z,100.00
2019-02-19T00:43:06.725Z,100.00
2019-02-19T00:45:39.110Z,100.00
2019-02-19T00:48:11.254Z,100.00
2019-02-19T00:50:43.681Z,100.00
2019-02-19T00:53:16.100Z,100.00
2019-02-19T00:55:48.471Z,100.00
2019-02-19T00:58:21.126Z,100.00
2019-02-19T01:00:53.915Z,100.00
2019-02-19T01:03:26.842Z,100.00
2019-02-19T01:05:59.237Z,100.00
2019-02-19T01:08:32.670Z,100.00
2019-02-19T01:11:14.239Z,100.00
2019-02-19T01:13:46.552Z,100.00
2019-02-19T01:16:19.394Z,100.00
2019-02-19T01:18:51.869Z,100.00
2019-02-19T01:21:24.285Z,100.00
2019-02-19T01:23:59.119Z,100.00
2019-02-19T01:26:31.279Z,100.00
2019-02-19T01:29:04.537Z,100.00
2019-02-19T01:31:35.551Z,100.00
2019-02-19T01:34:08.018Z,100.00
2019-02-19T01:36:40.991Z,100.00
2019-02-19T01:39:14.142Z,100.00
2019-02-19T01:41:46.552Z,100.00
2019-02-19T01:44:19.617Z,100.00
2019-02-19T01:46:51.931Z,100.00
2019-02-19T01:49:24.302Z,100.00
2019-02-19T01:51:56.701Z,100.00
2019-02-19T01:54:30.046Z,100.00
2019-02-19T01:57:01.257Z,100.00
2019-02-19T01:59:35.419Z,100.00
2019-02-19T02:02:07.534Z,100.00
2019-02-19T02:04:41.248Z,100.00
2019-02-19T02:07:13.596Z,100.00
2019-02-19T02:09:46.016Z,100.00
2019-02-19T02:12:18.779Z,100.00
2019-02-19T02:14:51.310Z,100.00
2019-02-19T02:17:23.493Z,100.00
2019-02-19T02:19:57.692Z,100.00
2019-02-19T02:22:32.645Z,100.00
2019-02-19T02:25:04.859Z,100.00
2019-02-19T02:27:37.282Z,100.00
2019-02-19T02:30:09.859Z,100.00
2019-02-19T02:32:42.241Z,100.00
2019-02-19T02:35:14.638Z,100.00
2019-02-19T02:37:46.743Z,100.00
2019-02-19T02:40:18.848Z,100.00
2019-02-19T02:42:51.034Z,100.00
2019-02-19T02:45:23.425Z,100.00
2019-02-19T02:47:55.955Z,100.00
2019-02-19T02:50:28.830Z,100.00
2019-02-19T02:53:01.260Z,100.00
2019-02-19T02:55:33.736Z,100.00
2019-02-19T02:58:06.633Z,100.00
2019-02-19T03:00:38.988Z,100.00
2019-02-19T03:03:11.200Z,100.00
2019-02-19T03:06:12.952Z,100.00
2019-02-19T03:08:45.044Z,100.00
2019-02-19T03:11:17.576Z,100.00
2019-02-19T03:13:50.320Z,100.00
2019-02-19T03:16:22.955Z,100.00
2019-02-19T03:18:55.423Z,100.00
2019-02-19T03:21:27.787Z,100.00
2019-02-19T03:24:00.326Z,100.00
2019-02-19T03:26:32.747Z,100.00
2019-02-19T03:29:05.164Z,100.00
2019-02-19T03:31:37.514Z,100.00
2019-02-19T03:34:09.897Z,100.00
2019-02-19T03:36:42.053Z,100.00
2019-02-19T03:39:14.569Z,100.00
2019-02-19T03:41:46.927Z,100.00
2019-02-19T03:44:19.032Z,100.00
2019-02-19T03:46:51.103Z,100.00
2019-02-19T03:49:23.196Z,100.00
2019-02-19T03:51:55.639Z,100.00
2019-02-19T03:54:28.756Z,100.00
2019-02-19T03:57:01.284Z,100.00
2019-02-19T03:59:33.873Z,100.00
2019-02-19T04:02:06.442Z,100.00
2019-02-19T04:04:38.818Z,100.00
2019-02-19T04:07:10.970Z,100.00
2019-02-19T04:09:43.068Z,100.00
2019-02-19T04:12:15.519Z,100.00
2019-02-19T04:14:47.936Z,100.00
2019-02-19T04:17:20.283Z,100.00
2019-02-19T04:19:52.703Z,100.00
2019-02-19T04:22:25.173Z,100.00
2019-02-19T04:24:57.574Z,100.00
2019-02-19T04:27:30.041Z,100.00
2019-02-19T04:30:02.465Z,100.00
2019-02-19T04:32:34.804Z,100.00
2019-02-19T04:35:07.267Z,100.00
2019-02-19T04:37:39.633Z,100.00
2019-02-19T04:40:12.001Z,100.00
2019-02-19T04:42:44.347Z,100.00
2019-02-19T04:45:16.456Z,100.00
2019-02-19T04:47:48.896Z,100.00
2019-02-19T04:50:21.275Z,100.00
2019-02-19T04:52:54.197Z,100.00
2019-02-19T04:55:26.567Z,100.00
2019-02-19T04:57:58.966Z,100.00
2019-02-19T05:00:31.347Z,100.00
2019-02-19T05:03:03.689Z,100.00
2019-02-19T05:05:36.400Z,100.00
2019-02-19T05:08:09.591Z,100.00
2019-02-19T05:10:42.372Z,100.00
2019-02-19T05:13:14.736Z,100.00
2019-02-19T05:15:46.943Z,100.00
2019-02-19T05:18:19.319Z,100.00
2019-02-19T05:20:51.469Z,100.00
2019-02-19T05:23:24.032Z,100.00
2019-02-19T05:25:57.299Z,100.00
2019-02-19T05:28:28.280Z,100.00
2019-02-19T05:31:00.449Z,100.00
2019-02-19T05:33:32.793Z,100.00
2019-02-19T05:36:04.988Z,100.00
2019-02-19T05:38:37.372Z,100.00
2019-02-19T05:41:10.267Z,100.00
2019-02-19T05:43:42.614Z,100.00
2019-02-19T05:46:14.712Z,100.00
2019-02-19T05:48:47.255Z,100.00
2019-02-19T05:51:20.319Z,100.00
2019-02-19T05:53:52.611Z,100.00
2019-02-19T05:56:25.175Z,100.00
2019-02-19T05:59:16.662Z,100.00
2019-02-19T06:01:48.811Z,100.00
2019-02-19T06:04:21.222Z,100.00
2019-02-19T06:06:53.629Z,100.00
2019-02-19T06:09:26.063Z,100.00
2019-02-19T06:11:58.633Z,100.00
2019-02-19T06:14:30.974Z,100.00
2019-02-19T06:17:03.225Z,100.00
2019-02-19T06:19:35.622Z,100.00
2019-02-19T06:22:07.749Z,100.00
2019-02-19T06:24:40.119Z,100.00
2019-02-19T06:27:12.205Z,100.00
2019-02-19T06:29:44.555Z,100.00
2019-02-19T06:32:16.681Z,100.00
2019-02-19T06:34:49.429Z,100.00
2019-02-19T06:37:21.531Z,100.00
2019-02-19T06:39:54.314Z,100.00
2019-02-19T06:42:27.031Z,100.00
2019-02-19T06:44:59.456Z,100.00
2019-02-19T06:47:31.839Z,100.00
2019-02-19T06:50:03.929Z,100.00
2019-02-19T06:52:36.572Z,100.00
2019-02-19T06:55:09.284Z,100.00
2019-02-19T06:57:41.624Z,100.00
2019-02-19T07:00:14.115Z,100.00
2019-02-19T07:03:00.859Z,100.00
2019-02-19T07:05:32.969Z,100.00
2019-02-19T07:08:05.398Z,100.00
2019-02-19T07:10:37.835Z,100.00
2019-02-19T07:13:10.247Z,100.00
2019-02-19T07:15:43.046Z,100.00
2019-02-19T07:18:15.482Z,100.00
2019-02-19T07:20:48.044Z,100.00
2019-02-19T07:23:20.425Z,100.00
2019-02-19T07:25:52.987Z,100.00
2019-02-19T07:28:25.387Z,100.00
2019-02-19T07:30:57.807Z,100.00
2019-02-19T07:33:30.319Z,100.00
2019-02-19T07:36:02.766Z,100.00
2019-02-19T07:38:35.132Z,100.00
2019-02-19T07:41:07.253Z,100.00
2019-02-19T07:43:39.761Z,100.00
2019-02-19T07:46:12.253Z,100.00
2019-02-19T07:48:44.656Z,100.00
2019-02-19T07:51:16.994Z,100.00
2019-02-19T07:53:49.826Z,100.00
2019-02-19T07:56:22.182Z,100.00
2019-02-19T07:58:54.359Z,100.00
2019-02-19T08:01:26.691Z,100.00
2019-02-19T08:03:58.802Z,100.00
2019-02-19T08:06:31.140Z,100.00
2019-02-19T08:09:04.779Z,100.00
2019-02-19T08:11:37.242Z,100.00
2019-02-19T08:14:09.605Z,100.00
2019-02-19T08:16:42.078Z,100.00
2019-02-19T08:19:14.797Z,100.00
2019-02-19T08:21:47.193Z,100.00
2019-02-19T08:24:19.368Z,100.00
2019-02-19T08:26:51.458Z,100.00
2019-02-19T08:29:24.281Z,100.00
2019-02-19T08:31:56.643Z,100.00
2019-02-19T08:34:28.754Z,100.00
2019-02-19T08:37:01.276Z,100.00
2019-02-19T08:39:33.630Z,100.00
2019-02-19T08:42:05.707Z,100.00
2019-02-19T08:44:38.143Z,100.00
2019-02-19T08:47:10.566Z,100.00
2019-02-19T08:49:42.711Z,100.00
2019-02-19T08:52:15.132Z,100.00
2019-02-19T08:54:47.647Z,100.00
2019-02-19T08:57:20.022Z,100.00
2019-02-19T08:59:52.121Z,99.32
2019-02-19T09:02:24.247Z,98.41
2019-02-19T09:04:56.412Z,97.22
2019-02-19T09:07:28.676Z,96.40
2019-02-19T09:10:01.398Z,95.26
2019-02-19T09:12:33.745Z,94.59
2019-02-19T09:15:06.644Z,94.13
2019-02-19T09:17:38.710Z,93.25
2019-02-19T09:20:11.822Z,92.06
2019-02-19T09:22:44.168Z,90.99
2019-02-19T09:25:16.317Z,89.54
2019-02-19T09:27:48.537Z,88.75
2019-02-19T09:30:21.175Z,87.90
2019-02-19T09:32:53.532Z,86.77
2019-02-19T09:35:25.648Z,86.44
2019-02-19T09:37:58.099Z,85.69
2019-02-19T09:40:30.530Z,84.66
2019-02-19T09:43:02.928Z,84.25
2019-02-19T09:45:35.391Z,83.44
2019-02-19T09:48:08.070Z,83.29
2019-02-19T09:50:40.488Z,82.14
2019-02-19T09:53:12.845Z,82.05
2019-02-19T09:55:44.949Z,81.95
2019-02-19T09:58:17.067Z,81.87
2019-02-19T10:00:49.374Z,81.80
2019-02-19T10:03:21.960Z,81.40
2019-02-19T10:05:54.312Z,80.50
2019-02-19T10:08:26.966Z,80.00
2019-02-19T10:10:59.509Z,79.63
2019-02-19T10:13:32.229Z,79.31
2019-02-19T10:16:04.605Z,78.78
2019-02-19T10:18:37.135Z,78.25
2019-02-19T10:21:09.805Z,78.27
2019-02-19T10:23:42.279Z,78.70
2019-02-19T10:26:14.763Z,78.68
2019-02-19T10:28:47.534Z,77.79
2019-02-19T10:31:19.891Z,77.51
2019-02-19T10:33:52.233Z,77.33
2019-02-19T10:36:24.591Z,76.96
2019-02-19T10:38:56.822Z,76.70
2019-02-19T10:41:29.214Z,76.31
2019-02-19T10:44:01.594Z,76.39
2019-02-19T10:46:33.998Z,75.45
2019-02-19T10:49:06.351Z,74.54
2019-02-19T10:51:38.442Z,74.44
2019-02-19T10:54:10.508Z,73.93
2019-02-19T10:56:42.601Z,73.32
2019-02-19T10:59:14.699Z,73.50
2019-02-19T11:01:46.763Z,72.59
2019-02-19T11:04:19.403Z,72.67
2019-02-19T11:06:51.594Z,72.71
2019-02-19T11:09:24.046Z,73.13
2019-02-19T11:11:58.130Z,73.33
2019-02-19T11:14:31.463Z,72.90
2019-02-19T11:17:03.825Z,72.79
2019-02-19T11:19:36.213Z,72.31
2019-02-19T11:22:08.570Z,71.99
2019-02-19T11:24:40.940Z,71.62
2019-02-19T11:27:13.343Z,71.58
2019-02-19T11:29:45.724Z,71.40
2019-02-19T11:32:17.778Z,71.47
2019-02-19T11:34:50.352Z,71.71
2019-02-19T11:37:22.691Z,71.43
2019-02-19T11:39:55.487Z,71.48
2019-02-19T11:42:28.144Z,71.32
2019-02-19T11:45:01.028Z,70.87
2019-02-19T11:47:33.478Z,70.69
2019-02-19T11:50:06.106Z,70.53
2019-02-19T11:52:38.450Z,70.57
2019-02-19T11:55:12.673Z,70.46
2019-02-19T11:57:45.670Z,70.37
2019-02-19T12:00:21.225Z,70.36
2019-02-19T12:02:54.237Z,70.24
2019-02-19T12:05:26.601Z,70.30
2019-02-19T12:07:58.708Z,70.26
2019-02-19T12:10:30.806Z,70.40
2019-02-19T12:13:03.242Z,70.34
2019-02-19T12:15:35.704Z,70.33
2019-02-19T12:18:08.071Z,70.57
2019-02-19T12:20:40.155Z,70.35
2019-02-19T12:23:12.391Z,70.51
2019-02-19T12:25:44.766Z,70.86
2019-02-19T12:28:17.177Z,70.89
2019-02-19T12:30:49.818Z,70.80
2019-02-19T12:33:22.259Z,71.02
2019-02-19T12:35:54.730Z,70.97
2019-02-19T12:38:27.119Z,71.08
2019-02-19T12:40:59.954Z,71.26
2019-02-19T12:43:32.867Z,71.13
2019-02-19T12:46:05.317Z,71.07
2019-02-19T12:48:37.658Z,70.91
2019-02-19T12:51:09.930Z,71.03
2019-02-19T12:53:42.403Z,71.04
2019-02-19T12:56:15.195Z,71.15
2019-02-19T12:58:47.870Z,71.08
2019-02-19T13:01:20.245Z,71.09
2019-02-19T13:03:52.626Z,71.07
2019-02-19T13:06:25.319Z,71.13
2019-02-19T13:08:57.826Z,71.08
2019-02-19T13:11:30.187Z,71.10
2019-02-19T13:14:02.723Z,71.30
2019-02-19T13:16:35.111Z,71.41
2019-02-19T13:19:07.465Z,71.52
2019-02-19T13:21:39.850Z,71.59
2019-02-19T13:24:12.222Z,71.62
2019-02-19T13:26:44.907Z,71.83
2019-02-19T13:29:17.413Z,72.00
2019-02-19T13:31:49.812Z,72.28
2019-02-19T13:34:21.886Z,72.36
2019-02-19T13:36:54.032Z,72.62
2019-02-19T13:39:26.203Z,72.71
2019-02-19T13:41:59.380Z,73.00
2019-02-19T13:44:30.743Z,73.26
2019-02-19T13:47:03.282Z,73.70
2019-02-19T13:49:36.150Z,73.96
2019-02-19T13:52:22.409Z,74.39
2019-02-19T13:54:54.296Z,74.74
2019-02-19T13:57:27.082Z,75.14
2019-02-19T13:59:59.868Z,75.45
2019-02-19T14:02:32.416Z,75.71
2019-02-19T14:05:04.787Z,75.99
2019-02-19T14:07:37.576Z,76.29
2019-02-19T14:10:09.949Z,76.83
2019-02-19T14:12:42.036Z,77.41
2019-02-19T14:15:25.958Z,77.89
2019-02-19T14:17:59.534Z,78.37
2019-02-19T14:20:50.284Z,78.73
2019-02-19T14:23:40.484Z,78.94
2019-02-19T14:26:34.755Z,79.23
2019-02-19T14:29:29.027Z,79.49
2019-02-19T14:32:23.354Z,79.71
2019-02-19T14:35:21.170Z,79.35
2019-02-19T14:38:15.475Z,79.22
2019-02-19T14:41:05.659Z,79.19
2019-02-19T14:44:13.259Z,79.28
2019-02-19T14:47:03.697Z,79.17
2019-02-19T14:49:48.361Z,79.46
2019-02-19T14:52:55.316Z,79.33
2019-02-19T14:56:00.347Z,79.25
2019-02-19T14:58:52.804Z,79.25
2019-02-19T15:01:47.422Z,79.30
2019-02-19T15:04:38.921Z,79.25
2019-02-19T15:07:30.433Z,79.24
2019-02-19T15:10:24.748Z,79.09
2019-02-19T15:13:13.672Z,79.12
2019-02-19T15:16:05.292Z,78.98
2019-02-19T15:19:06.059Z,78.92
2019-02-19T15:21:50.498Z,78.88
2019-02-19T15:24:48.121Z,78.94
2019-02-19T15:27:48.897Z,79.06
2019-02-19T15:30:42.995Z,79.22
2019-02-19T15:33:40.810Z,79.33
2019-02-19T15:36:41.589Z,79.43
2019-02-19T15:39:42.687Z,79.51
2019-02-19T15:42:39.682Z,79.68
2019-02-19T15:45:31.224Z,79.79
2019-02-19T15:48:12.026Z,79.90
2019-02-19T15:51:02.608Z,80.04
2019-02-19T15:54:09.566Z,80.10
2019-02-19T15:57:13.318Z,80.32
2019-02-19T16:00:16.563Z,80.39
2019-02-19T16:03:03.543Z,80.81
2019-02-19T16:05:59.559Z,81.00
2019-02-19T16:08:41.408Z,81.27
2019-02-19T16:11:31.820Z,81.58
2019-02-19T16:14:24.309Z,81.85
2019-02-19T16:17:28.229Z,81.91
2019-02-19T16:20:19.513Z,82.27
2019-02-19T16:23:17.613Z,82.74
2019-02-19T16:26:12.171Z,83.05
2019-02-19T16:29:02.671Z,83.30
2019-02-19T16:31:57.919Z,83.32
2019-02-19T16:34:38.495Z,83.52
2019-02-19T16:37:19.661Z,84.09
2019-02-19T16:40:03.247Z,84.55
2019-02-19T16:42:53.044Z,84.84
2019-02-19T16:45:42.666Z,85.22
2019-02-19T16:48:25.254Z,85.63
2019-02-19T16:51:08.200Z,86.11
2019-02-19T16:53:50.702Z,86.37
2019-02-19T16:56:51.050Z,86.52
2019-02-19T16:59:33.033Z,86.93
2019-02-19T17:02:13.835Z,87.41
2019-02-19T17:05:19.730Z,88.09
2019-02-19T17:08:16.662Z,88.59
2019-02-19T17:10:59.068Z,88.95
2019-02-19T17:13:57.874Z,89.22
2019-02-19T17:16:42.006Z,89.50
2019-02-19T17:19:32.333Z,90.05
2019-02-19T17:22:33.151Z,90.62
2019-02-19T17:25:28.200Z,91.28
2019-02-19T17:28:22.592Z,91.96
2019-02-19T17:31:21.230Z,92.65
2019-02-19T17:34:06.828Z,93.25
2019-02-19T17:36:58.634Z,93.73
2019-02-19T17:39:53.228Z,93.88
2019-02-19T17:42:40.482Z,94.24
2019-02-19T17:45:31.971Z,94.60
2019-02-19T17:48:38.595Z,94.84
2019-02-19T17:51:32.976Z,95.10
2019-02-19T17:54:28.158Z,95.60
2019-02-19T17:57:09.656Z,95.60
2019-02-19T18:00:01.357Z,96.17
2019-02-19T18:03:09.393Z,96.36
2019-02-19T18:05:54.975Z,96.51
2019-02-19T18:08:33.595Z,96.94
2019-02-19T18:11:44.571Z,97.11
2019-02-19T18:14:43.208Z,97.46
2019-02-19T18:17:36.695Z,98.05
2019-02-19T18:20:09.468Z,98.34
2019-02-19T18:22:42.193Z,98.61
2019-02-19T18:25:15.737Z,98.82
2019-02-19T18:27:48.977Z,99.26
2019-02-19T18:30:21.359Z,99.46
2019-02-19T18:32:54.013Z,99.45
2019-02-19T18:35:27.951Z,99.54
2019-02-19T18:38:01.726Z,100.00
2019-02-19T18:40:34.453Z,100.00
2019-02-19T18:43:06.659Z,100.00
2019-02-19T18:45:41.449Z,100.00
2019-02-19T18:48:14.412Z,100.00
2019-02-19T18:50:46.939Z,100.00
2019-02-19T18:53:19.296Z,100.00
2019-02-19T18:55:51.418Z,100.00
2019-02-19T18:58:23.588Z,100.00
2019-02-19T19:00:57.711Z,100.00
2019-02-19T19:03:30.711Z,100.00
2019-02-19T19:06:03.630Z,100.00
2019-02-19T19:08:35.984Z,100.00
2019-02-19T19:11:08.090Z,100.00
2019-02-19T19:13:40.169Z,100.00
2019-02-19T19:16:13.679Z,100.00
2019-02-19T19:18:47.417Z,100.00
2019-02-19T19:21:20.791Z,100.00
2019-02-19T19:23:53.712Z,100.00
2019-02-19T19:26:25.846Z,100.00
2019-02-19T19:28:59.235Z,100.00
2019-02-19T19:31:34.095Z,100.00
2019-02-19T19:34:06.239Z,100.00
2019-02-19T19:36:38.431Z,100.00
2019-02-19T19:39:10.821Z,100.00
2019-02-19T19:41:43.174Z,100.00
2019-02-19T19:44:15.269Z,100.00
2019-02-19T19:46:47.402Z,100.00
2019-02-19T19:49:19.567Z,100.00
2019-02-19T19:51:52.029Z,100.00
2019-02-19T19:54:24.987Z,100.00
2019-02-19T19:56:58.527Z,100.00
2019-02-19T19:59:30.823Z,100.00
2019-02-19T20:02:05.320Z,100.00
2019-02-19T20:04:40.164Z,100.00
2019-02-19T20:07:13.375Z,100.00
2019-02-19T20:09:46.337Z,100.00
2019-02-19T20:12:18.486Z,100.00
2019-02-19T20:14:52.985Z,100.00
2019-02-19T20:17:26.661Z,100.00
2019-02-19T20:19:59.817Z,100.00
2019-02-19T20:22:34.172Z,100.00
2019-02-19T20:25:07.033Z,100.00
2019-02-19T20:27:41.758Z,100.00
2019-02-19T20:30:13.986Z,100.00
2019-02-19T20:32:46.808Z,100.00
2019-02-19T20:35:19.203Z,100.00
2019-02-19T20:37:54.103Z,100.00
2019-02-19T20:40:25.200Z,100.00
2019-02-19T20:42:58.737Z,100.00
2019-02-19T20:45:31.269Z,100.00
2019-02-19T20:48:04.091Z,100.00
2019-02-19T20:50:37.400Z,100.00
2019-02-19T20:53:10.587Z,100.00
2019-02-19T20:55:44.565Z,100.00
2019-02-19T20:58:17.319Z,100.00
2019-02-19T21:00:50.700Z,100.00
2019-02-19T21:03:21.757Z,100.00
2019-02-19T21:05:54.230Z,100.00
2019-02-19T21:08:27.003Z,100.00
2019-02-19T21:10:59.524Z,100.00
2019-02-19T21:13:32.107Z,100.00
2019-02-19T21:16:04.601Z,100.00
2019-02-19T21:18:37.121Z,100.00
2019-02-19T21:21:09.857Z,100.00
2019-02-19T21:23:43.609Z,100.00
2019-02-19T21:26:16.715Z,100.00
2019-02-19T21:28:49.486Z,100.00
2019-02-19T21:31:22.334Z,100.00
2019-02-19T21:33:56.584Z,100.00
2019-02-19T21:36:29.149Z,100.00
2019-02-19T21:39:02.504Z,100.00
2019-02-19T21:41:33.638Z,100.00
2019-02-19T21:44:06.719Z,100.00
2019-02-19T21:46:41.240Z,100.00
2019-02-19T21:49:13.614Z,100.00
2019-02-19T21:51:54.018Z,100.00
2019-02-19T21:54:22.111Z,100.00
2019-02-19T21:56:54.943Z,100.00
2019-02-19T21:59:27.400Z,100.00
2019-02-19T22:01:59.814Z,100.00
2019-02-19T22:04:35.066Z,100.00
2019-02-19T22:07:10.027Z,100.00
2019-02-19T22:09:42.457Z,100.00
2019-02-19T22:12:15.331Z,100.00
2019-02-19T22:14:48.821Z,100.00
2019-02-19T22:17:21.111Z,100.00
2019-02-19T22:20:02.713Z,100.00
2019-02-19T22:22:32.875Z,100.00
2019-02-19T22:25:05.539Z,100.00
2019-02-19T22:27:39.405Z,100.00
2019-02-19T22:30:14.109Z,100.00
2019-02-19T22:32:49.327Z,100.00
2019-02-19T22:35:21.474Z,100.00
2019-02-19T22:37:53.950Z,100.00
2019-02-19T22:40:26.367Z,100.00
2019-02-19T22:42:58.811Z,100.00
2019-02-19T22:45:31.398Z,100.00
2019-02-19T22:48:05.919Z,100.00
2019-02-19T22:50:38.771Z,100.00
2019-02-19T22:53:29.057Z,100.00
2019-02-19T22:56:14.915Z,100.00
2019-02-19T22:58:49.885Z,100.00
2019-02-19T23:01:35.618Z,100.00
2019-02-19T23:04:07.745Z,100.00
2019-02-19T23:06:40.690Z,100.00
2019-02-19T23:09:13.340Z,100.00
2019-02-19T23:11:46.552Z,100.00
2019-02-19T23:14:21.445Z,100.00
2019-02-19T23:16:53.541Z,100.00
2019-02-19T23:19:25.751Z,100.00
2019-02-19T23:21:59.577Z,100.00
2019-02-19T23:24:33.797Z,100.00
2019-02-19T23:27:06.293Z,100.00
2019-02-19T23:29:37.795Z,100.00
2019-02-19T23:32:09.799Z,100.00
2019-02-19T23:34:43.134Z,100.00
2019-02-19T23:37:31.700Z,100.00
2019-02-19T23:40:04.136Z,100.00
2019-02-19T23:42:36.493Z,100.00
2019-02-19T23:45:10.093Z,100.00
2019-02-19T23:47:44.906Z,100.00
2019-02-19T23:50:19.406Z,100.00
2019-02-19T23:52:52.622Z,100.00
2019-02-19T23:55:25.817Z,100.00
2019-02-19T23:57:57.917Z,100.00
